Time;durP1;ratioP1;P1;durP2;ratioP2;P2;SDS_P1;SDS_P2;PMS_P1;PMS_P2;Temp;Humidity;BMP_temperature;BMP_pressure;BME280_temperature;BME280_humidity;BME280_pressure;Samples;Min_cycle;Max_cycle;Signal;HPM_P1;HPM_P2
2021/04/02 00:01:19;;;;;;;7.50;4.43;;;14.10;52.50;;;;;;5039637;28;20478;-46
2021/04/02 00:03:45;;;;;;;6.83;4.10;;;14.00;52.10;;;;;;5035243;28;20519;-45
2021/04/02 00:06:12;;;;;;;7.10;4.10;;;13.90;52.20;;;;;;5041322;28;20474;-46
2021/04/02 00:08:39;;;;;;;7.40;5.27;;;13.80;52.20;;;;;;5037293;28;20481;-46
2021/04/02 00:11:10;;;;;;;8.07;4.37;;;13.80;52.40;;;;;;5037816;28;20966;-46
2021/04/02 00:13:46;;;;;;;6.83;5.27;;;13.60;52.30;;;;;;5037594;28;20492;-46
2021/04/02 00:16:14;;;;;;;5.70;3.97;;;13.60;52.30;;;;;;5037504;28;20522;-46
2021/04/02 00:18:41;;;;;;;5.97;4.63;;;13.60;52.40;;;;;;5040187;28;20509;-46
2021/04/02 00:21:11;;;;;;;6.20;3.90;;;13.50;52.60;;;;;;5036148;28;20454;-46
2021/04/02 00:23:38;;;;;;;6.60;3.90;;;13.40;52.70;;;;;;5039703;28;20446;-46
2021/04/02 00:26:10;;;;;;;8.73;4.60;;;13.40;52.80;;;;;;5040998;28;20482;-46
2021/04/02 00:28:36;;;;;;;8.27;3.93;;;13.30;52.60;;;;;;5037998;28;20931;-46
2021/04/02 00:31:03;;;;;;;7.13;4.00;;;13.20;53.00;;;;;;5036552;28;20470;-45
2021/04/02 00:33:32;;;;;;;7.60;4.70;;;13.20;53.00;;;;;;5037376;28;20459;-46
2021/04/02 00:35:59;;;;;;;5.90;3.90;;;13.10;53.00;;;;;;5036861;28;20483;-46
2021/04/02 00:38:26;;;;;;;9.57;4.70;;;13.10;53.30;;;;;;5039578;28;20801;-46
2021/04/02 00:40:59;;;;;;;7.33;4.53;;;13.10;53.30;;;;;;5038104;28;20446;-46
2021/04/02 00:43:36;;;;;;;8.30;4.30;;;12.90;53.10;;;;;;5040300;28;20509;-46
2021/04/02 00:46:03;;;;;;;10.87;3.50;;;12.90;53.40;;;;;;5037362;28;20469;-46
2021/04/02 00:48:30;;;;;;;6.40;4.20;;;12.90;53.50;;;;;;5037588;28;20465;-46
2021/04/02 00:51:01;;;;;;;6.43;3.77;;;12.80;53.50;;;;;;5040477;28;20458;-46
2021/04/02 00:53:29;;;;;;;6.53;4.37;;;12.80;53.70;;;;;;5042603;28;20463;-46
2021/04/02 00:55:58;;;;;;;7.27;4.60;;;12.70;53.70;;;;;;5040316;28;20992;-45
2021/04/02 00:58:30;;;;;;;7.37;3.80;;;12.70;53.60;;;;;;5042368;28;20485;-46
2021/04/02 01:00:56;;;;;;;5.07;3.97;;;12.60;53.80;;;;;;5039901;28;20485;-46
2021/04/02 01:03:23;;;;;;;9.17;3.97;;;12.60;53.90;;;;;;5040774;28;20471;-46
2021/04/02 01:05:52;;;;;;;7.00;4.07;;;12.50;54.00;;;;;;5037814;28;20462;-45
2021/04/02 01:08:21;;;;;;;9.03;3.80;;;12.50;54.00;;;;;;5041041;28;20504;-46
2021/04/02 01:10:49;;;;;;;7.50;4.40;;;12.40;54.10;;;;;;5049687;28;20991;-46
2021/04/02 01:13:17;;;;;;;6.23;3.70;;;;;;;;;;5035461;28;20558;-45
2021/04/02 01:15:47;;;;;;;5.90;4.03;;;12.40;54.40;;;;;;5051919;28;20982;-46
2021/04/02 01:18:25;;;;;;;5.93;4.07;;;12.30;54.40;;;;;;5044404;28;20498;-46
2021/04/02 01:20:58;;;;;;;7.30;4.83;;;12.30;54.40;;;;;;5044225;28;21179;-46
2021/04/02 01:23:30;;;;;;;8.20;4.90;;;12.30;54.60;;;;;;5040199;28;20462;-46
2021/04/02 01:26:13;;;;;;;6.73;4.27;;;12.20;54.30;;;;;;5039868;28;20554;-46
2021/04/02 01:28:49;;;;;;;7.60;4.40;;;12.10;54.40;;;;;;5043449;28;20465;-45
2021/04/02 01:31:15;;;;;;;7.90;4.30;;;12.00;54.50;;;;;;5041691;28;20954;-46
2021/04/02 01:33:42;;;;;;;8.27;3.77;;;12.00;54.80;;;;;;5039155;28;20960;-46
2021/04/02 01:36:11;;;;;;;6.07;4.03;;;11.90;55.00;;;;;;5042644;28;20479;-46
2021/04/02 01:38:40;;;;;;;5.93;4.10;;;11.90;55.00;;;;;;5041784;28;21041;-46
2021/04/02 01:41:10;;;;;;;7.90;5.13;;;11.90;55.60;;;;;;5042374;28;21057;-46
2021/04/02 01:43:42;;;;;;;5.67;5.10;;;11.80;55.70;;;;;;5041557;28;20453;-46
2021/04/02 01:46:09;;;;;;;6.47;5.30;;;11.80;56.00;;;;;;5042486;28;20820;-46
2021/04/02 01:48:39;;;;;;;10.43;5.80;;;11.80;56.50;;;;;;5041732;28;20538;-46
2021/04/02 01:51:06;;;;;;;8.03;5.00;;;11.80;56.60;;;;;;5037223;28;20465;-46
2021/04/02 01:53:37;;;;;;;7.73;5.00;;;11.70;56.80;;;;;;5045769;28;20475;-46
2021/04/02 01:56:05;;;;;;;7.97;5.27;;;;;;;;;;5044850;28;20482;-46
2021/04/02 01:58:32;;;;;;;6.17;5.20;;;;;;;;;;5044121;28;20454;-45
2021/04/02 02:00:59;;;;;;;6.70;5.83;;;;;;;;;;5043174;28;20466;-46
2021/04/02 02:03:27;;;;;;;8.60;5.43;;;;;;;;;;5038604;28;20474;-45
2021/04/02 02:05:55;;;;;;;9.27;5.63;;;11.70;57.10;;;;;;5040586;28;20462;-46
2021/04/02 02:08:22;;;;;;;5.80;5.20;;;;;;;;;;5038875;28;20470;-46
2021/04/02 02:10:56;;;;;;;7.13;5.87;;;11.50;57.70;;;;;;5036545;28;20462;-45
2021/04/02 02:13:25;;;;;;;6.07;5.47;;;11.50;58.10;;;;;;5043505;28;21017;-46
2021/04/02 02:15:53;;;;;;;6.20;5.30;;;11.50;58.50;;;;;;5040426;28;20575;-46
2021/04/02 02:18:23;;;;;;;9.43;6.50;;;11.40;58.80;;;;;;5042524;28;20469;-46
2021/04/02 02:20:50;;;;;;;7.30;5.90;;;11.40;58.90;;;;;;5025099;28;20462;-46
2021/04/02 02:23:16;;;;;;;7.97;6.37;;;11.40;59.00;;;;;;5046921;28;20475;-46
2021/04/02 02:25:42;;;;;;;8.33;6.27;;;11.30;59.00;;;;;;5041040;28;20455;-43
2021/04/02 02:28:09;;;;;;;8.53;6.60;;;11.30;59.30;;;;;;5044661;28;20442;-44
2021/04/02 02:30:36;;;;;;;9.30;6.70;;;11.30;59.30;;;;;;5039230;28;20608;-45
2021/04/02 02:33:02;;;;;;;9.40;7.17;;;11.30;59.40;;;;;;5057447;28;21055;-45
2021/04/02 02:35:29;;;;;;;7.60;6.77;;;11.20;59.40;;;;;;5044551;28;20512;-44
2021/04/02 02:37:57;;;;;;;7.40;6.00;;;11.20;59.50;;;;;;5041570;28;20956;-46
2021/04/02 02:40:32;;;;;;;7.30;6.30;;;11.20;59.70;;;;;;5056289;28;20460;-44
2021/04/02 02:42:59;;;;;;;8.53;6.67;;;11.20;59.70;;;;;;5045638;28;20455;-44
2021/04/02 02:45:27;;;;;;;8.60;6.90;;;11.10;59.50;;;;;;5042153;28;20458;-45
2021/04/02 02:47:54;;;;;;;12.30;6.97;;;11.10;59.80;;;;;;5039824;28;20481;-45
2021/04/02 02:50:26;;;;;;;7.87;6.47;;;11.00;60.00;;;;;;5038905;28;20459;-45
2021/04/02 02:52:53;;;;;;;9.27;6.40;;;11.00;60.20;;;;;;5042289;28;20538;-42
2021/04/02 02:55:22;;;;;;;8.07;6.90;;;11.00;60.30;;;;;;5042271;28;20882;-42
2021/04/02 02:57:52;;;;;;;14.60;7.90;;;10.90;60.00;;;;;;5039718;28;20470;-42
2021/04/02 03:00:24;;;;;;;7.87;6.43;;;10.90;59.90;;;;;;5042971;28;20459;-42
2021/04/02 03:02:54;;;;;;;6.93;6.23;;;10.90;60.00;;;;;;5042479;28;20894;-42
2021/04/02 03:05:25;;;;;;;8.00;6.00;;;10.90;60.00;;;;;;5043901;28;20999;-42
2021/04/02 03:07:56;;;;;;;9.40;6.57;;;10.90;60.10;;;;;;5037987;28;20466;-42
2021/04/02 03:10:24;;;;;;;8.77;6.70;;;10.90;60.40;;;;;;5042783;28;20455;-42
2021/04/02 03:12:52;;;;;;;6.70;5.90;;;10.80;60.40;;;;;;5059413;28;20451;-42
2021/04/02 03:15:20;;;;;;;8.47;6.70;;;10.80;60.40;;;;;;5036526;28;20462;-42
2021/04/02 03:17:55;;;;;;;7.80;6.53;;;10.80;60.40;;;;;;5038725;28;20478;-42
2021/04/02 03:20:23;;;;;;;8.13;7.30;;;10.80;60.50;;;;;;5041511;28;20454;-42
2021/04/02 03:22:51;;;;;;;8.70;6.50;;;10.70;60.60;;;;;;5039001;28;20449;-42
2021/04/02 03:25:19;;;;;;;9.40;6.43;;;10.60;60.70;;;;;;5041993;28;20994;-42
2021/04/02 03:27:47;;;;;;;9.07;6.80;;;10.60;60.70;;;;;;5039377;28;21006;-42
2021/04/02 03:30:16;;;;;;;6.80;6.10;;;10.60;61.00;;;;;;5037104;28;20841;-42
2021/04/02 03:33:00;;;;;;;8.27;6.33;;;10.50;60.70;;;;;;5040165;28;20451;-42
2021/04/02 03:35:28;;;;;;;8.90;6.50;;;10.50;60.70;;;;;;5040236;28;20491;-42
2021/04/02 03:37:56;;;;;;;10.00;6.30;;;10.40;60.90;;;;;;5044807;28;20928;-42
2021/04/02 03:40:24;;;;;;;7.60;6.30;;;10.40;61.00;;;;;;5038523;28;20458;-42
2021/04/02 03:42:57;;;;;;;7.20;6.10;;;10.30;61.10;;;;;;5039692;28;20550;-42
2021/04/02 03:45:25;;;;;;;8.30;6.10;;;10.30;61.30;;;;;;5041120;28;20959;-42
2021/04/02 03:47:54;;;;;;;7.60;6.43;;;10.20;61.30;;;;;;5041838;28;20466;-43
2021/04/02 03:50:22;;;;;;;7.07;6.00;;;10.20;61.30;;;;;;5038875;28;20454;-42
2021/04/02 03:53:09;;;;;;;9.50;7.03;;;10.20;61.30;;;;;;5036337;28;20953;-42
2021/04/02 03:55:39;;;;;;;9.60;6.63;;;10.10;61.30;;;;;;5042128;28;20574;-42
2021/04/02 03:58:09;;;;;;;11.30;5.87;;;10.10;61.40;;;;;;5036195;28;21010;-42
2021/04/02 04:01:05;;;;;;;7.50;6.13;;;10.10;61.50;;;;;;5039210;28;20462;-42
2021/04/02 04:03:34;;;;;;;6.87;5.83;;;10.00;61.60;;;;;;5032688;28;20484;-42
2021/04/02 04:06:01;;;;;;;7.87;5.83;;;10.00;61.70;;;;;;5039546;28;20965;-42
2021/04/02 04:08:29;;;;;;;7.20;6.17;;;9.90;61.90;;;;;;5042906;28;21025;-42
2021/04/02 04:10:58;;;;;;;9.50;7.10;;;9.90;62.10;;;;;;5039282;28;20971;-42
2021/04/02 04:13:25;;;;;;;7.30;6.07;;;9.90;62.20;;;;;;5039371;28;20450;-42
2021/04/02 04:15:54;;;;;;;9.53;5.93;;;9.90;62.20;;;;;;5041393;28;20497;-42
2021/04/02 04:18:22;;;;;;;7.50;6.70;;;9.80;62.10;;;;;;5038522;28;20462;-42
2021/04/02 04:20:53;;;;;;;8.90;6.80;;;9.80;62.50;;;;;;5038037;28;20953;-42
2021/04/02 04:23:20;;;;;;;9.30;6.33;;;9.80;62.50;;;;;;5048107;28;20947;-42
2021/04/02 04:25:52;;;;;;;9.07;6.40;;;9.70;62.50;;;;;;5043877;28;20466;-42
2021/04/02 04:28:20;;;;;;;10.93;6.87;;;9.70;62.50;;;;;;5040996;28;20454;-42
2021/04/02 04:30:49;;;;;;;7.60;5.97;;;9.60;62.80;;;;;;5037297;28;20553;-42
2021/04/02 04:33:17;;;;;;;7.83;6.20;;;9.60;63.00;;;;;;5043750;28;20455;-42
2021/04/02 04:35:45;;;;;;;9.13;6.60;;;9.60;63.10;;;;;;5038366;28;20504;-42
2021/04/02 04:38:13;;;;;;;9.87;6.50;;;9.50;63.30;;;;;;5041822;28;20862;-42
2021/04/02 04:40:40;;;;;;;8.30;6.53;;;;;;;;;;5044267;28;20454;-42
2021/04/02 04:43:08;;;;;;;8.80;6.73;;;;;;;;;;5045671;28;20458;-42
2021/04/02 04:45:35;;;;;;;9.40;6.40;;;9.50;63.40;;;;;;5039638;28;20467;-42
2021/04/02 04:48:01;;;;;;;8.13;6.13;;;9.50;63.40;;;;;;5045280;28;20460;-42
2021/04/02 04:50:28;;;;;;;8.53;5.60;;;9.50;63.50;;;;;;5040224;28;20959;-42
2021/04/02 04:53:01;;;;;;;6.93;5.83;;;9.40;63.40;;;;;;5041605;28;20504;-42
2021/04/02 04:55:31;;;;;;;7.80;6.60;;;9.40;63.50;;;;;;5061544;28;20463;-42
2021/04/02 04:57:58;;;;;;;7.93;7.00;;;9.40;63.60;;;;;;5048576;28;20450;-42
2021/04/02 05:00:26;;;;;;;9.60;7.27;;;9.30;63.60;;;;;;5058847;28;20604;-42
2021/04/02 05:02:54;;;;;;;7.60;5.70;;;9.30;63.70;;;;;;5039474;28;21107;-42
2021/04/02 05:05:29;;;;;;;8.23;5.80;;;9.30;63.80;;;;;;5043575;28;20541;-42
2021/04/02 05:07:57;;;;;;;7.80;6.53;;;9.30;63.80;;;;;;5031102;28;20456;-42
2021/04/02 05:10:24;;;;;;;8.10;6.80;;;9.20;63.90;;;;;;5044641;28;20466;-42
2021/04/02 05:12:52;;;;;;;6.53;5.90;;;;;;;;;;5043038;28;20966;-42
2021/04/02 05:15:20;;;;;;;9.17;5.67;;;;;;;;;;5043542;28;20995;-42
2021/04/02 05:17:51;;;;;;;8.93;5.97;;;;;;;;;;5042455;28;20506;-42
2021/04/02 05:20:18;;;;;;;8.10;5.97;;;;;;;;;;5043833;28;20565;-42
2021/04/02 05:22:45;;;;;;;7.10;6.10;;;;;;;;;;5034107;28;20458;-42
2021/04/02 05:25:12;;;;;;;8.53;6.23;;;;;;;;;;5031940;28;20546;-42
2021/04/02 05:27:38;;;;;;;9.77;7.10;;;9.20;64.10;;;;;;5037528;28;21095;-42
2021/04/02 05:30:05;;;;;;;10.17;6.23;;;9.20;64.40;;;;;;5041899;28;20459;-42
2021/04/02 05:32:31;;;;;;;10.90;6.87;;;9.20;64.60;;;;;;5039921;28;20469;-42
2021/04/02 05:34:58;;;;;;;7.80;6.13;;;9.20;64.80;;;;;;5034346;28;20885;-42
2021/04/02 05:37:24;;;;;;;8.67;6.50;;;9.20;64.50;;;;;;5055852;28;20498;-42
2021/04/02 05:39:50;;;;;;;8.90;7.30;;;9.20;64.40;;;;;;5044020;28;20583;-42
2021/04/02 05:42:23;;;;;;;9.07;6.23;;;9.20;64.50;;;;;;5037892;28;20478;-42
2021/04/02 05:44:51;;;;;;;6.97;6.27;;;9.20;64.60;;;;;;5040585;28;20908;-42
2021/04/02 05:47:19;;;;;;;8.30;7.00;;;9.20;64.50;;;;;;5039554;28;20467;-42
2021/04/02 05:49:46;;;;;;;8.40;7.40;;;9.20;64.30;;;;;;5059765;28;20459;-42
2021/04/02 05:52:13;;;;;;;9.20;6.43;;;9.30;64.20;;;;;;5041151;28;20467;-42
2021/04/02 05:54:46;;;;;;;9.03;6.73;;;9.30;64.10;;;;;;5043609;28;20459;-42
2021/04/02 05:57:15;;;;;;;9.57;6.57;;;9.30;64.20;;;;;;5042948;28;21006;-42
2021/04/02 05:59:42;;;;;;;10.40;6.40;;;9.40;64.20;;;;;;5040921;28;20470;-42
2021/04/02 06:02:11;;;;;;;9.07;6.87;;;9.40;64.30;;;;;;5041997;28;20461;-42
2021/04/02 06:04:38;;;;;;;13.57;6.07;;;9.40;64.40;;;;;;5042977;28;20462;-42
2021/04/02 06:07:05;;;;;;;9.37;6.23;;;9.40;64.40;;;;;;5022862;28;20542;-42
2021/04/02 06:09:31;;;;;;;8.80;6.70;;;9.50;64.40;;;;;;5043968;28;20475;-42
2021/04/02 06:11:57;;;;;;;12.17;8.60;;;9.60;64.10;;;;;;5038293;28;20558;-42
2021/04/02 06:14:24;;;;;;;9.53;6.50;;;9.60;64.30;;;;;;5043511;28;20467;-42
2021/04/02 06:16:52;;;;;;;11.20;7.83;;;9.60;64.30;;;;;;5037765;28;20494;-42
2021/04/02 06:19:19;;;;;;;9.40;6.67;;;9.60;64.40;;;;;;5037356;28;20450;-42
2021/04/02 06:21:53;;;;;;;11.40;7.50;;;9.60;64.40;;;;;;5040037;28;20899;-41
2021/04/02 06:25:01;;;;;;;9.60;6.63;;;9.70;64.30;;;;;;5041878;28;20474;-41
2021/04/02 06:27:28;;;;;;;10.47;8.17;;;9.80;64.10;;;;;;4990203;28;20472;-41
2021/04/02 06:30:03;;;;;;;13.40;6.60;;;9.90;63.70;;;;;;5046052;28;20594;-42
2021/04/02 06:32:36;;;;;;;10.27;7.10;;;9.90;63.80;;;;;;5039554;28;20517;-41
2021/04/02 06:35:09;;;;;;;12.37;7.23;;;9.90;64.10;;;;;;5041156;28;20830;-41
2021/04/02 06:37:36;;;;;;;9.63;6.43;;;9.90;64.10;;;;;;5040876;28;20491;-42
2021/04/02 06:40:19;;;;;;;9.93;6.90;;;9.90;64.20;;;;;;5046457;28;20785;-42
2021/04/02 06:42:46;;;;;;;9.97;7.03;;;9.90;64.00;;;;;;5044826;28;20954;-41
2021/04/02 06:45:14;;;;;;;10.10;7.00;;;10.00;63.60;;;;;;5041847;28;20935;-42
2021/04/02 06:47:43;;;;;;;9.90;7.70;;;10.00;63.60;;;;;;5037729;28;20505;-42
2021/04/02 06:50:13;;;;;;;8.67;6.20;;;10.00;63.60;;;;;;5039981;28;20450;-42
2021/04/02 06:52:39;;;;;;;11.53;8.30;;;10.00;63.60;;;;;;5036950;28;20459;-42
2021/04/02 06:55:07;;;;;;;7.63;6.57;;;10.00;63.50;;;;;;5040615;28;20895;-42
2021/04/02 06:57:34;;;;;;;10.43;6.83;;;10.10;63.40;;;;;;5034670;28;20497;-42
2021/04/02 07:00:00;;;;;;;7.13;6.43;;;10.20;62.90;;;;;;5040645;28;20832;-41
2021/04/02 07:02:27;;;;;;;9.40;7.50;;;10.20;62.90;;;;;;5042225;28;20546;-41
2021/04/02 07:04:56;;;;;;;11.93;8.27;;;10.20;62.90;;;;;;5037532;28;20843;-42
2021/04/02 07:07:23;;;;;;;12.03;7.67;;;10.20;63.00;;;;;;5037878;28;20462;-42
2021/04/02 07:09:53;;;;;;;11.53;7.37;;;10.30;63.20;;;;;;5040446;28;20465;-42
2021/04/02 07:12:19;;;;;;;7.90;6.77;;;10.30;62.80;;;;;;5034867;28;20484;-42
2021/04/02 07:14:49;;;;;;;11.63;7.27;;;10.40;62.70;;;;;;5036161;28;20741;-42
2021/04/02 07:17:15;;;;;;;8.60;7.00;;;10.40;62.50;;;;;;5038985;28;20495;-42
2021/04/02 07:19:43;;;;;;;11.10;8.10;;;10.50;62.60;;;;;;5044416;28;20587;-42
2021/04/02 07:22:10;;;;;;;13.53;8.43;;;10.50;62.50;;;;;;5035664;28;20541;-42
2021/04/02 07:24:37;;;;;;;9.33;6.57;;;10.50;61.90;;;;;;5038315;28;20455;-42
2021/04/02 07:27:03;;;;;;;8.80;6.90;;;10.60;62.10;;;;;;5039471;28;20463;-42
2021/04/02 07:29:30;;;;;;;8.53;6.53;;;10.60;61.70;;;;;;5038239;28;20473;-42
2021/04/02 07:31:57;;;;;;;9.47;6.43;;;10.60;61.60;;;;;;5044600;28;20979;-42
2021/04/02 07:34:23;;;;;;;9.93;7.33;;;10.70;61.40;;;;;;5035103;28;20960;-41
2021/04/02 07:36:52;;;;;;;8.00;6.80;;;10.70;61.40;;;;;;5035686;28;20544;-42
2021/04/02 07:39:21;;;;;;;8.63;6.90;;;10.80;60.90;;;;;;5043115;28;20455;-42
2021/04/02 07:41:49;;;;;;;8.03;6.43;;;10.80;60.70;;;;;;5037972;28;20978;-41
2021/04/02 07:44:17;;;;;;;7.57;6.67;;;10.80;60.80;;;;;;5044074;28;20636;-42
2021/04/02 07:47:07;;;;;;;7.07;6.37;;;10.90;60.50;;;;;;5040467;28;20457;-42
2021/04/02 07:49:38;;;;;;;7.23;6.53;;;11.00;60.20;;;;;;5032954;28;20509;-41
2021/04/02 07:52:05;;;;;;;8.13;6.37;;;11.00;59.80;;;;;;5042633;28;20474;-41
2021/04/02 07:54:35;;;;;;;11.07;7.83;;;11.00;60.70;;;;;;5039917;28;20902;-41
2021/04/02 07:57:13;;;;;;;9.00;7.50;;;11.10;60.30;;;;;;5035839;28;20999;-42
2021/04/02 07:59:39;;;;;;;9.70;6.60;;;11.10;59.90;;;;;;5042531;28;20446;-42
2021/04/02 08:02:10;;;;;;;6.90;5.80;;;11.00;59.00;;;;;;5039645;28;20467;-42
2021/04/02 08:04:42;;;;;;;7.30;6.43;;;11.00;59.10;;;;;;5036861;28;20904;-41
2021/04/02 08:07:32;;;;;;;11.13;7.10;;;11.00;59.20;;;;;;5045041;28;20459;-40
2021/04/02 08:10:00;;;;;;;8.37;7.00;;;11.10;58.90;;;;;;5036051;28;20499;-40
2021/04/02 08:12:35;;;;;;;9.00;7.23;;;11.20;58.50;;;;;;5037039;28;20494;-40
2021/04/02 08:15:16;;;;;;;11.23;7.13;;;11.20;57.70;;;;;;5042511;28;20967;-40
2021/04/02 08:17:44;;;;;;;7.60;6.47;;;11.30;57.50;;;;;;5043895;28;20486;-40
2021/04/02 08:20:13;;;;;;;7.17;6.47;;;11.30;57.40;;;;;;5047324;28;20998;-41
2021/04/02 08:22:39;;;;;;;10.40;7.13;;;11.30;58.00;;;;;;5045490;28;20461;-40
2021/04/02 08:25:11;;;;;;;8.70;5.93;;;11.30;57.90;;;;;;5042654;28;20455;-40
2021/04/02 08:27:41;;;;;;;7.53;6.40;;;11.30;57.70;;;;;;5041102;28;20462;-40
2021/04/02 08:30:12;;;;;;;9.90;6.13;;;11.40;57.60;;;;;;5044450;28;20889;-40
2021/04/02 08:32:43;;;;;;;8.90;6.70;;;11.50;57.40;;;;;;5044414;28;21030;-40
2021/04/02 08:35:12;;;;;;;8.37;6.93;;;11.50;56.70;;;;;;5045907;28;20537;-40
2021/04/02 08:37:54;;;;;;;10.73;8.10;;;11.50;56.70;;;;;;5045365;28;20483;-40
2021/04/02 08:40:23;;;;;;;8.50;7.00;;;11.60;56.60;;;;;;5040947;28;20918;-41
2021/04/02 08:42:50;;;;;;;12.43;6.20;;;11.60;56.70;;;;;;5038867;28;20526;-42
2021/04/02 08:45:18;;;;;;;8.20;6.57;;;11.50;57.00;;;;;;5047074;28;20673;-40
2021/04/02 08:47:47;;;;;;;7.60;6.50;;;11.50;56.90;;;;;;5045073;28;20459;-40
2021/04/02 08:50:14;;;;;;;8.83;6.07;;;11.50;56.50;;;;;;5029588;28;20445;-40
2021/04/02 08:52:40;;;;;;;8.10;7.30;;;11.50;56.80;;;;;;5044347;28;20453;-40
2021/04/02 08:55:08;;;;;;;8.20;7.00;;;11.60;56.50;;;;;;5033050;28;20447;-40
2021/04/02 08:57:36;;;;;;;9.83;6.33;;;11.60;56.40;;;;;;5046943;28;20482;-40
2021/04/02 09:00:08;;;;;;;7.47;5.90;;;11.60;56.20;;;;;;5046535;28;21076;-40
2021/04/02 09:02:36;;;;;;;7.43;6.40;;;11.70;56.10;;;;;;5059371;28;20502;-40
2021/04/02 09:05:07;;;;;;;8.87;7.00;;;11.70;56.70;;;;;;5043562;28;20439;-40
2021/04/02 09:07:42;;;;;;;8.67;7.87;;;11.70;56.90;;;;;;5040696;28;20485;-40
2021/04/02 09:10:17;;;;;;;7.53;6.73;;;11.80;55.70;;;;;;5040634;28;20486;-40
2021/04/02 09:12:48;;;;;;;6.93;6.13;;;11.80;55.20;;;;;;5045418;28;20446;-40
2021/04/02 09:15:19;;;;;;;9.33;8.40;;;11.90;55.40;;;;;;5048960;28;20947;-40
2021/04/02 09:17:46;;;;;;;9.83;8.03;;;11.90;55.80;;;;;;5042300;28;20877;-40
2021/04/02 09:20:13;;;;;;;9.30;7.83;;;11.90;56.00;;;;;;5039344;28;20443;-40
2021/04/02 09:22:43;;;;;;;8.47;7.03;;;11.90;55.60;;;;;;5041772;28;20455;-40
2021/04/02 09:25:15;;;;;;;9.20;7.50;;;12.00;55.30;;;;;;5051206;28;20470;-40
2021/04/02 09:27:42;;;;;;;10.27;7.73;;;11.90;55.70;;;;;;5043217;28;20457;-40
2021/04/02 09:30:09;;;;;;;8.03;7.10;;;11.90;55.90;;;;;;5044379;28;20858;-40
2021/04/02 09:32:35;;;;;;;7.97;7.17;;;11.90;56.10;;;;;;5046270;28;20554;-40
2021/04/02 09:35:05;;;;;;;9.67;7.60;;;12.00;55.50;;;;;;5043456;28;20520;-40
2021/04/02 09:37:33;;;;;;;9.50;7.80;;;11.90;56.00;;;;;;5042433;28;20482;-40
2021/04/02 09:40:08;;;;;;;9.33;6.97;;;11.90;55.70;;;;;;5043081;28;20874;-42
2021/04/02 09:42:36;;;;;;;7.60;6.80;;;11.90;56.50;;;;;;5048153;28;20468;-40
2021/04/02 09:45:11;;;;;;;9.47;8.07;;;11.90;55.90;;;;;;5045478;28;20999;-40
2021/04/02 09:47:42;;;;;;;8.53;7.40;;;12.00;56.20;;;;;;5043359;28;20450;-40
2021/04/02 09:50:09;;;;;;;10.00;7.73;;;12.00;56.10;;;;;;5043116;28;20846;-40
2021/04/02 09:52:37;;;;;;;9.37;7.50;;;12.00;55.80;;;;;;5045648;28;20454;-40
2021/04/02 09:55:06;;;;;;;7.50;6.70;;;12.00;55.80;;;;;;5044763;28;20513;-40
2021/04/02 09:57:33;;;;;;;9.83;7.13;;;12.10;55.70;;;;;;5040797;28;20497;-40
2021/04/02 10:00:00;;;;;;;10.13;7.70;;;12.10;56.20;;;;;;5040760;28;20462;-39
2021/04/02 10:02:26;;;;;;;8.40;7.47;;;12.20;56.30;;;;;;5057292;28;20495;-40
2021/04/02 10:04:53;;;;;;;7.67;6.10;;;12.30;55.80;;;;;;5039314;28;20708;-40
2021/04/02 10:07:20;;;;;;;9.70;6.80;;;12.40;55.30;;;;;;5044496;28;20546;-40
2021/04/02 10:09:47;;;;;;;9.73;7.07;;;12.40;54.70;;;;;;5039252;28;20550;-40
2021/04/02 10:12:14;;;;;;;8.90;6.57;;;12.60;54.40;;;;;;5043375;28;20971;-40
2021/04/02 10:14:41;;;;;;;8.67;7.40;;;12.70;54.50;;;;;;5043199;28;20446;-40
2021/04/02 10:17:10;;;;;;;9.83;6.80;;;12.90;54.00;;;;;;5043115;28;20498;-40
2021/04/02 10:19:37;;;;;;;8.13;7.33;;;13.00;53.70;;;;;;5041609;28;20458;-40
2021/04/02 10:22:05;;;;;;;9.37;7.80;;;13.20;53.40;;;;;;5039490;28;20794;-39
2021/04/02 10:24:32;;;;;;;9.83;8.93;;;13.30;53.60;;;;;;5041374;28;20485;-40
2021/04/02 10:26:59;;;;;;;12.00;7.70;;;13.40;52.70;;;;;;5040056;28;20462;-39
2021/04/02 10:29:26;;;;;;;9.13;7.20;;;13.40;52.70;;;;;;5039859;28;20463;-39
2021/04/02 10:31:53;;;;;;;7.50;6.20;;;13.50;52.70;;;;;;5025367;28;20546;-39
2021/04/02 10:34:19;;;;;;;8.10;7.30;;;13.50;52.20;;;;;;5040406;28;20466;-39
2021/04/02 10:36:45;;;;;;;8.90;6.50;;;13.50;52.10;;;;;;5039291;28;20482;-39
2021/04/02 10:39:12;;;;;;;8.70;7.53;;;13.50;51.80;;;;;;5043874;28;20452;-39
2021/04/02 10:41:39;;;;;;;9.27;8.30;;;13.60;51.90;;;;;;5042647;28;20547;-39
2021/04/02 10:44:06;;;;;;;10.67;8.00;;;13.60;52.20;;;;;;5042502;28;20447;-41
2021/04/02 10:46:32;;;;;;;8.70;7.73;;;13.70;52.10;;;;;;5046307;28;20914;-39
2021/04/02 10:48:59;;;;;;;8.63;6.50;;;13.90;51.70;;;;;;5042030;28;20459;-39
2021/04/02 10:51:25;;;;;;;9.67;7.73;;;14.00;51.00;;;;;;5054192;28;20971;-39
2021/04/02 10:54:00;;;;;;;11.23;7.90;;;14.20;50.60;;;;;;5037825;28;20473;-39
2021/04/02 10:56:28;;;;;;;8.60;7.67;;;14.30;50.60;;;;;;5052797;28;20852;-39
2021/04/02 10:58:55;;;;;;;9.90;7.40;;;14.40;50.60;;;;;;5036048;28;20564;-39
2021/04/02 11:01:21;;;;;;;10.70;8.23;;;14.40;51.00;;;;;;5053175;28;20458;-39
2021/04/02 11:03:48;;;;;;;11.67;8.27;;;14.40;50.50;;;;;;5041154;28;20458;-39
2021/04/02 11:06:14;;;;;;;7.90;7.10;;;14.50;50.40;;;;;;5044323;28;20450;-39
2021/04/02 11:08:41;;;;;;;7.60;6.77;;;14.50;50.50;;;;;;5041752;28;20566;-39
2021/04/02 11:11:09;;;;;;;9.27;6.53;;;14.50;50.60;;;;;;5045209;28;20445;-39
2021/04/02 11:13:36;;;;;;;9.23;8.00;;;14.60;49.70;;;;;;5042711;28;20814;-39
2021/04/02 11:16:02;;;;;;;10.50;7.47;;;14.60;49.30;;;;;;5041682;28;20441;-39
2021/04/02 11:18:31;;;;;;;8.90;7.27;;;14.70;49.20;;;;;;5043440;28;20455;-39
2021/04/02 11:20:58;;;;;;;9.53;7.47;;;14.60;48.70;;;;;;5041542;28;20820;-39
2021/04/02 11:23:26;;;;;;;7.47;6.77;;;14.50;49.60;;;;;;5045474;28;20962;-39
2021/04/02 11:25:55;;;;;;;7.17;6.10;;;14.70;49.80;;;;;;5044785;28;20467;-39
2021/04/02 11:28:21;;;;;;;6.30;5.70;;;14.80;48.60;;;;;;5038664;28;20553;-40
2021/04/02 11:30:48;;;;;;;7.90;7.10;;;14.90;49.00;;;;;;5041033;28;20542;-39
2021/04/02 11:33:14;;;;;;;7.13;6.40;;;14.90;47.50;;;;;;5042038;28;20517;-39
2021/04/02 11:35:40;;;;;;;8.50;6.77;;;14.80;47.40;;;;;;5041584;28;20458;-39
2021/04/02 11:38:07;;;;;;;8.13;6.53;;;14.80;48.00;;;;;;5042584;28;20483;-41
2021/04/02 11:40:34;;;;;;;7.47;6.67;;;14.80;48.40;;;;;;5039254;28;20973;-39
2021/04/02 11:43:00;;;;;;;7.43;5.80;;;14.90;47.90;;;;;;5043010;28;20454;-40
2021/04/02 11:45:27;;;;;;;7.80;6.23;;;15.30;47.70;;;;;;5044705;28;20451;-41
2021/04/02 11:47:53;;;;;;;6.80;6.20;;;15.70;47.10;;;;;;5058073;28;21018;-41
2021/04/02 11:50:19;;;;;;;7.13;6.43;;;16.10;46.50;;;;;;5038414;28;20961;-41
2021/04/02 11:52:45;;;;;;;8.17;6.10;;;16.30;45.30;;;;;;5042801;28;20461;-38
2021/04/02 11:55:12;;;;;;;9.07;5.80;;;16.30;45.20;;;;;;5039542;28;20455;-38
2021/04/02 11:57:39;;;;;;;6.57;5.60;;;16.30;45.80;;;;;;5042929;28;20546;-38
2021/04/02 12:00:10;;;;;;;6.27;5.67;;;16.30;45.40;;;;;;5046251;28;20446;-38
2021/04/02 12:02:36;;;;;;;5.80;5.17;;;16.40;44.50;;;;;;5044337;28;21000;-38
2021/04/02 12:05:05;;;;;;;6.87;5.60;;;16.60;44.90;;;;;;5056472;28;20939;-41
2021/04/02 12:07:31;;;;;;;6.17;5.43;;;16.70;45.30;;;;;;5043033;28;20551;-38
2021/04/02 12:09:57;;;;;;;5.37;4.80;;;16.80;44.80;;;;;;5045567;28;20459;-38
2021/04/02 12:12:24;;;;;;;7.13;6.37;;;16.80;44.70;;;;;;5041678;28;20457;-39
2021/04/02 12:14:50;;;;;;;6.70;6.10;;;17.00;43.70;;;;;;5040000;28;20927;-39
2021/04/02 12:17:17;;;;;;;9.13;5.53;;;17.10;43.30;;;;;;5043838;28;20487;-39
2021/04/02 12:19:43;;;;;;;6.10;5.50;;;17.20;43.40;;;;;;5039765;28;20452;-41
2021/04/02 12:22:09;;;;;;;6.10;4.73;;;17.20;43.30;;;;;;5037665;28;20514;-41
2021/04/02 12:24:37;;;;;;;6.03;5.23;;;17.40;43.20;;;;;;5041993;28;20459;-39
2021/04/02 12:27:05;;;;;;;5.40;4.60;;;17.40;43.40;;;;;;5054161;28;21148;-39
2021/04/02 12:29:34;;;;;;;7.53;5.77;;;17.30;42.80;;;;;;5042556;28;20464;-39
2021/04/02 12:32:03;;;;;;;6.50;5.60;;;17.30;42.60;;;;;;5037645;28;20458;-40
2021/04/02 12:34:29;;;;;;;6.13;5.50;;;17.30;42.90;;;;;;5041432;28;20549;-39
2021/04/02 12:36:56;;;;;;;6.93;5.70;;;17.20;42.70;;;;;;5044778;28;20486;-41
2021/04/02 12:39:22;;;;;;;5.83;5.33;;;17.20;42.70;;;;;;5037293;28;20551;-41
2021/04/02 12:41:49;;;;;;;6.10;5.50;;;17.30;42.90;;;;;;5045245;28;20531;-41
2021/04/02 12:44:15;;;;;;;6.33;5.70;;;17.30;42.30;;;;;;5042658;28;20482;-41
2021/04/02 12:46:42;;;;;;;4.83;4.37;;;17.30;42.70;;;;;;5038254;28;20451;-41
2021/04/02 12:49:08;;;;;;;5.63;5.13;;;17.30;43.10;;;;;;5039481;28;20724;-41
2021/04/02 12:51:34;;;;;;;5.80;5.20;;;17.30;42.70;;;;;;5038771;28;20542;-38
2021/04/02 12:54:00;;;;;;;5.40;4.70;;;17.40;42.30;;;;;;5042414;28;20935;-38
2021/04/02 12:56:27;;;;;;;7.87;5.30;;;17.50;42.10;;;;;;5028207;28;20542;-39
2021/04/02 12:58:53;;;;;;;6.93;6.00;;;17.60;42.90;;;;;;5042760;28;20490;-38
2021/04/02 13:01:19;;;;;;;6.90;5.57;;;17.50;41.60;;;;;;5044857;28;20451;-39